KSNY

Sidney Municipal / Lloyd W Carr Field Airport

Sidney, Nebraska, USA
METAR KSNY 142353Z AUTO 21005KT 10SM CLR M02/M11 A3020 RMK AO2 SLP266 T10171111 10122 21022 58003
Observed Flight Rules
Dec-14 @ 23:53 UTC (48 minutes ago) Visual Flight Rules
Wind Visibility Clouds
210° at 5 knots 10 miles
  • Clear skies
Temperatures Readings
Current -2°C / 28°F
Dewpoint -11°C / 12°F
Humidity 51%
Altimeter 30.2" Hg
Pressure 1026.6 hPa
Elevation 1307
METAR KSNY 142353Z AUTO 21005KT 10SM CLR M02/M11 A3020 RMK AO2 SLP266 T10171111 10122 21022 58003
Observed Flight Rules
Dec-14 @ 23:53 UTC
(48 minutes ago)
VFR
Wind Visibility
210° at 5 knots 10 miles
Clouds
  • Clear skies
Temperature Dewpoint
-2°C / 28°F -11°C / 12°F
Humidity Altimeter Pressure
51% 30.2" Hg 1026.6 hPa